sensor_id;sensor_type;location;lat;lon;timestamp;temperature;humidity
71837;DHT22;59686;51.716;7.016;2023-06-10T00:01:15;26.50;59.90
71837;DHT22;59686;51.716;7.016;2023-06-10T00:03:41;26.50;59.80
71837;DHT22;59686;51.716;7.016;2023-06-10T00:06:08;26.50;59.70
71837;DHT22;59686;51.716;7.016;2023-06-10T00:08:53;26.50;59.70
71837;DHT22;59686;51.716;7.016;2023-06-10T00:11:21;26.50;59.70
71837;DHT22;59686;51.716;7.016;2023-06-10T00:13:47;26.50;59.70
71837;DHT22;59686;51.716;7.016;2023-06-10T00:16:12;26.40;59.70
71837;DHT22;59686;51.716;7.016;2023-06-10T00:18:38;26.40;59.70
71837;DHT22;59686;51.716;7.016;2023-06-10T00:21:04;26.40;59.70
71837;DHT22;59686;51.716;7.016;2023-06-10T00:23:31;26.40;59.70
71837;DHT22;59686;51.716;7.016;2023-06-10T00:26:00;26.40;59.70
71837;DHT22;59686;51.716;7.016;2023-06-10T00:28:26;26.40;59.80
71837;DHT22;59686;51.716;7.016;2023-06-10T00:30:51;26.40;59.70
71837;DHT22;59686;51.716;7.016;2023-06-10T00:33:17;26.40;59.70
71837;DHT22;59686;51.716;7.016;2023-06-10T00:35:43;26.30;59.60
71837;DHT22;59686;51.716;7.016;2023-06-10T00:38:19;26.30;59.60
71837;DHT22;59686;51.716;7.016;2023-06-10T00:40:45;26.30;59.60
71837;DHT22;59686;51.716;7.016;2023-06-10T00:43:10;26.30;59.50
71837;DHT22;59686;51.716;7.016;2023-06-10T00:45:36;26.30;59.50
71837;DHT22;59686;51.716;7.016;2023-06-10T00:48:02;26.30;59.40
71837;DHT22;59686;51.716;7.016;2023-06-10T00:50:29;26.30;59.40
71837;DHT22;59686;51.716;7.016;2023-06-10T00:52:56;26.20;59.30
71837;DHT22;59686;51.716;7.016;2023-06-10T00:55:23;26.20;59.20
71837;DHT22;59686;51.716;7.016;2023-06-10T00:57:50;26.20;59.20
71837;DHT22;59686;51.716;7.016;2023-06-10T01:00:17;26.10;59.10
71837;DHT22;59686;51.716;7.016;2023-06-10T01:02:43;26.20;59.10
71837;DHT22;59686;51.716;7.016;2023-06-10T01:05:09;26.20;59.10
71837;DHT22;59686;51.716;7.016;2023-06-10T01:10:43;26.20;58.90
71837;DHT22;59686;51.716;7.016;2023-06-10T01:13:13;26.10;59.00
71837;DHT22;59686;51.716;7.016;2023-06-10T01:15:39;26.10;58.90
71837;DHT22;59686;51.716;7.016;2023-06-10T01:18:07;26.10;59.00
71837;DHT22;59686;51.716;7.016;2023-06-10T01:20:41;26.10;59.00
71837;DHT22;59686;51.716;7.016;2023-06-10T01:23:10;26.10;59.00
71837;DHT22;59686;51.716;7.016;2023-06-10T01:25:39;26.10;59.10
71837;DHT22;59686;51.716;7.016;2023-06-10T01:28:34;26.10;58.90
71837;DHT22;59686;51.716;7.016;2023-06-10T01:33:47;26.00;58.90
71837;DHT22;59686;51.716;7.016;2023-06-10T01:36:14;26.00;58.90
71837;DHT22;59686;51.716;7.016;2023-06-10T01:38:46;26.00;58.90
71837;DHT22;59686;51.716;7.016;2023-06-10T01:41:14;26.00;58.90
71837;DHT22;59686;51.716;7.016;2023-06-10T01:43:43;26.00;58.90
71837;DHT22;59686;51.716;7.016;2023-06-10T01:46:09;26.00;58.90
71837;DHT22;59686;51.716;7.016;2023-06-10T01:48:35;26.00;58.90
71837;DHT22;59686;51.716;7.016;2023-06-10T01:51:00;25.90;58.80
71837;DHT22;59686;51.716;7.016;2023-06-10T01:53:26;25.90;58.80
71837;DHT22;59686;51.716;7.016;2023-06-10T01:55:52;25.80;58.80
71837;DHT22;59686;51.716;7.016;2023-06-10T01:58:18;25.90;58.80
71837;DHT22;59686;51.716;7.016;2023-06-10T02:00:43;25.80;58.80
71837;DHT22;59686;51.716;7.016;2023-06-10T02:03:12;25.90;59.60
71837;DHT22;59686;51.716;7.016;2023-06-10T02:05:38;25.80;58.80
71837;DHT22;59686;51.716;7.016;2023-06-10T02:08:04;25.80;58.90
71837;DHT22;59686;51.716;7.016;2023-06-10T02:10:30;25.80;58.90
71837;DHT22;59686;51.716;7.016;2023-06-10T02:12:55;25.80;58.90
71837;DHT22;59686;51.716;7.016;2023-06-10T02:15:21;25.80;58.90
71837;DHT22;59686;51.716;7.016;2023-06-10T02:17:47;25.80;58.90
71837;DHT22;59686;51.716;7.016;2023-06-10T02:20:14;25.80;58.90
71837;DHT22;59686;51.716;7.016;2023-06-10T02:22:40;25.80;58.90
71837;DHT22;59686;51.716;7.016;2023-06-10T02:25:06;25.80;58.90
71837;DHT22;59686;51.716;7.016;2023-06-10T02:27:32;25.70;58.90
71837;DHT22;59686;51.716;7.016;2023-06-10T02:29:58;25.70;58.90
71837;DHT22;59686;51.716;7.016;2023-06-10T02:32:23;25.70;58.90
71837;DHT22;59686;51.716;7.016;2023-06-10T02:34:49;25.70;58.90
71837;DHT22;59686;51.716;7.016;2023-06-10T02:37:16;25.70;58.90
71837;DHT22;59686;51.716;7.016;2023-06-10T02:39:42;25.60;58.90
71837;DHT22;59686;51.716;7.016;2023-06-10T02:42:07;25.60;58.90
71837;DHT22;59686;51.716;7.016;2023-06-10T02:44:33;25.60;58.90
71837;DHT22;59686;51.716;7.016;2023-06-10T02:46:59;25.60;58.90
71837;DHT22;59686;51.716;7.016;2023-06-10T02:49:29;25.60;58.90
71837;DHT22;59686;51.716;7.016;2023-06-10T02:51:55;25.60;58.90
71837;DHT22;59686;51.716;7.016;2023-06-10T02:54:23;25.60;58.90
71837;DHT22;59686;51.716;7.016;2023-06-10T02:56:49;25.60;58.90
71837;DHT22;59686;51.716;7.016;2023-06-10T02:59:15;25.60;58.90
71837;DHT22;59686;51.716;7.016;2023-06-10T03:01:41;25.50;58.80
71837;DHT22;59686;51.716;7.016;2023-06-10T03:04:15;25.50;58.90
71837;DHT22;59686;51.716;7.016;2023-06-10T03:06:40;25.50;58.90
71837;DHT22;59686;51.716;7.016;2023-06-10T03:09:06;25.50;58.80
71837;DHT22;59686;51.716;7.016;2023-06-10T03:11:35;25.50;58.80
71837;DHT22;59686;51.716;7.016;2023-06-10T03:14:00;25.50;58.80
71837;DHT22;59686;51.716;7.016;2023-06-10T03:16:26;25.50;58.80
71837;DHT22;59686;51.716;7.016;2023-06-10T03:18:53;25.40;58.70
71837;DHT22;59686;51.716;7.016;2023-06-10T03:21:19;25.40;58.70
71837;DHT22;59686;51.716;7.016;2023-06-10T03:23:46;25.40;58.70
71837;DHT22;59686;51.716;7.016;2023-06-10T03:26:11;25.40;58.60
71837;DHT22;59686;51.716;7.016;2023-06-10T03:28:40;25.40;58.60
71837;DHT22;59686;51.716;7.016;2023-06-10T03:31:05;25.40;58.60
71837;DHT22;59686;51.716;7.016;2023-06-10T03:33:31;25.40;58.60
71837;DHT22;59686;51.716;7.016;2023-06-10T03:35:57;25.40;58.60
71837;DHT22;59686;51.716;7.016;2023-06-10T03:38:23;25.30;58.40
71837;DHT22;59686;51.716;7.016;2023-06-10T03:40:49;25.30;58.40
71837;DHT22;59686;51.716;7.016;2023-06-10T03:43:32;25.30;58.50
71837;DHT22;59686;51.716;7.016;2023-06-10T03:45:58;25.30;58.50
71837;DHT22;59686;51.716;7.016;2023-06-10T03:48:24;25.30;58.50
71837;DHT22;59686;51.716;7.016;2023-06-10T03:50:49;25.30;58.50
71837;DHT22;59686;51.716;7.016;2023-06-10T03:53:16;25.20;58.40
71837;DHT22;59686;51.716;7.016;2023-06-10T03:55:42;25.30;58.50
71837;DHT22;59686;51.716;7.016;2023-06-10T03:58:08;25.20;58.40
71837;DHT22;59686;51.716;7.016;2023-06-10T04:00:33;25.30;58.40
71837;DHT22;59686;51.716;7.016;2023-06-10T04:03:10;25.20;58.40
71837;DHT22;59686;51.716;7.016;2023-06-10T04:05:40;25.20;58.50
71837;DHT22;59686;51.716;7.016;2023-06-10T04:08:23;25.20;58.50
71837;DHT22;59686;51.716;7.016;2023-06-10T04:10:48;25.20;58.40
71837;DHT22;59686;51.716;7.016;2023-06-10T04:13:14;25.10;58.40
71837;DHT22;59686;51.716;7.016;2023-06-10T04:15:40;25.10;58.40
71837;DHT22;59686;51.716;7.016;2023-06-10T04:18:06;25.10;58.50
71837;DHT22;59686;51.716;7.016;2023-06-10T04:20:32;25.10;58.50
71837;DHT22;59686;51.716;7.016;2023-06-10T04:22:59;25.10;58.50
71837;DHT22;59686;51.716;7.016;2023-06-10T04:25:26;25.10;58.60
71837;DHT22;59686;51.716;7.016;2023-06-10T04:27:52;25.10;58.50
71837;DHT22;59686;51.716;7.016;2023-06-10T04:30:27;25.10;58.50
71837;DHT22;59686;51.716;7.016;2023-06-10T04:32:53;25.00;58.50
71837;DHT22;59686;51.716;7.016;2023-06-10T04:35:18;25.10;58.60
71837;DHT22;59686;51.716;7.016;2023-06-10T04:37:44;25.00;58.50
71837;DHT22;59686;51.716;7.016;2023-06-10T04:40:10;25.00;58.50
71837;DHT22;59686;51.716;7.016;2023-06-10T04:42:36;25.00;58.60
71837;DHT22;59686;51.716;7.016;2023-06-10T04:45:02;25.00;58.60
71837;DHT22;59686;51.716;7.016;2023-06-10T04:47:29;25.00;58.50
71837;DHT22;59686;51.716;7.016;2023-06-10T04:49:59;25.00;58.50
71837;DHT22;59686;51.716;7.016;2023-06-10T04:52:25;24.90;59.30
71837;DHT22;59686;51.716;7.016;2023-06-10T04:54:51;24.90;58.60
71837;DHT22;59686;51.716;7.016;2023-06-10T04:57:16;24.90;58.50
71837;DHT22;59686;51.716;7.016;2023-06-10T04:59:42;24.90;58.60
71837;DHT22;59686;51.716;7.016;2023-06-10T05:02:08;24.90;58.50
71837;DHT22;59686;51.716;7.016;2023-06-10T05:04:33;24.90;58.50
71837;DHT22;59686;51.716;7.016;2023-06-10T05:06:59;24.90;58.40
71837;DHT22;59686;51.716;7.016;2023-06-10T05:09:25;24.80;58.30
71837;DHT22;59686;51.716;7.016;2023-06-10T05:11:58;24.80;58.40
71837;DHT22;59686;51.716;7.016;2023-06-10T05:14:24;24.90;58.40
71837;DHT22;59686;51.716;7.016;2023-06-10T05:16:49;24.80;58.50
71837;DHT22;59686;51.716;7.016;2023-06-10T05:19:15;24.80;58.50
71837;DHT22;59686;51.716;7.016;2023-06-10T05:21:44;24.80;58.60
71837;DHT22;59686;51.716;7.016;2023-06-10T05:24:14;24.80;58.70
71837;DHT22;59686;51.716;7.016;2023-06-10T05:26:42;24.80;58.70
71837;DHT22;59686;51.716;7.016;2023-06-10T05:29:11;24.80;58.70
71837;DHT22;59686;51.716;7.016;2023-06-10T05:32:00;24.80;58.70
71837;DHT22;59686;51.716;7.016;2023-06-10T05:34:34;24.80;58.70
71837;DHT22;59686;51.716;7.016;2023-06-10T05:37:00;24.80;58.70
71837;DHT22;59686;51.716;7.016;2023-06-10T05:39:26;24.70;58.70
71837;DHT22;59686;51.716;7.016;2023-06-10T05:41:51;24.70;58.50
71837;DHT22;59686;51.716;7.016;2023-06-10T05:44:17;24.70;58.50
71837;DHT22;59686;51.716;7.016;2023-06-10T05:46:43;24.70;58.50
71837;DHT22;59686;51.716;7.016;2023-06-10T05:49:09;24.70;58.50
71837;DHT22;59686;51.716;7.016;2023-06-10T05:51:35;24.70;58.50
71837;DHT22;59686;51.716;7.016;2023-06-10T05:54:06;24.70;58.50
71837;DHT22;59686;51.716;7.016;2023-06-10T05:56:31;24.70;58.50
71837;DHT22;59686;51.716;7.016;2023-06-10T05:58:57;24.60;58.50
71837;DHT22;59686;51.716;7.016;2023-06-10T06:01:23;24.60;58.40
71837;DHT22;59686;51.716;7.016;2023-06-10T06:03:48;24.60;58.50
71837;DHT22;59686;51.716;7.016;2023-06-10T06:06:14;24.60;58.50
71837;DHT22;59686;51.716;7.016;2023-06-10T06:08:40;24.60;58.50
71837;DHT22;59686;51.716;7.016;2023-06-10T06:11:05;24.60;58.50
71837;DHT22;59686;51.716;7.016;2023-06-10T06:13:31;24.60;58.50
71837;DHT22;59686;51.716;7.016;2023-06-10T06:15:57;24.60;58.50
71837;DHT22;59686;51.716;7.016;2023-06-10T06:18:22;24.60;58.50
71837;DHT22;59686;51.716;7.016;2023-06-10T06:20:48;24.60;58.50
71837;DHT22;59686;51.716;7.016;2023-06-10T06:23:14;24.60;58.50
71837;DHT22;59686;51.716;7.016;2023-06-10T06:25:47;24.60;58.50
71837;DHT22;59686;51.716;7.016;2023-06-10T06:28:12;24.60;58.40
71837;DHT22;59686;51.716;7.016;2023-06-10T06:30:38;24.60;58.40
71837;DHT22;59686;51.716;7.016;2023-06-10T06:33:04;24.50;58.40
71837;DHT22;59686;51.716;7.016;2023-06-10T06:35:33;24.50;58.30
71837;DHT22;59686;51.716;7.016;2023-06-10T06:37:59;24.50;58.30
71837;DHT22;59686;51.716;7.016;2023-06-10T06:40:25;24.50;58.40
71837;DHT22;59686;51.716;7.016;2023-06-10T06:42:50;24.50;58.40
71837;DHT22;59686;51.716;7.016;2023-06-10T06:45:27;24.50;58.50
71837;DHT22;59686;51.716;7.016;2023-06-10T06:47:53;24.50;58.50
71837;DHT22;59686;51.716;7.016;2023-06-10T06:50:19;24.50;58.60
71837;DHT22;59686;51.716;7.016;2023-06-10T06:53:17;24.50;58.50
71837;DHT22;59686;51.716;7.016;2023-06-10T06:55:42;24.50;58.30
71837;DHT22;59686;51.716;7.016;2023-06-10T06:58:08;24.50;58.30
71837;DHT22;59686;51.716;7.016;2023-06-10T07:00:34;24.50;58.40
71837;DHT22;59686;51.716;7.016;2023-06-10T07:02:59;24.50;58.50
71837;DHT22;59686;51.716;7.016;2023-06-10T07:05:25;24.50;58.50
71837;DHT22;59686;51.716;7.016;2023-06-10T07:08:13;24.50;58.50
71837;DHT22;59686;51.716;7.016;2023-06-10T07:10:38;24.50;58.50
71837;DHT22;59686;51.716;7.016;2023-06-10T07:13:04;24.50;58.50
71837;DHT22;59686;51.716;7.016;2023-06-10T07:15:30;24.50;58.50
71837;DHT22;59686;51.716;7.016;2023-06-10T07:17:56;24.50;58.30
71837;DHT22;59686;51.716;7.016;2023-06-10T07:20:21;24.50;58.30
71837;DHT22;59686;51.716;7.016;2023-06-10T07:22:47;24.50;58.30
71837;DHT22;59686;51.716;7.016;2023-06-10T07:25:13;24.50;58.20
71837;DHT22;59686;51.716;7.016;2023-06-10T07:27:38;24.50;58.10
71837;DHT22;59686;51.716;7.016;2023-06-10T07:30:06;24.50;58.10
71837;DHT22;59686;51.716;7.016;2023-06-10T07:32:33;24.40;57.90
71837;DHT22;59686;51.716;7.016;2023-06-10T07:34:59;24.40;57.70
71837;DHT22;59686;51.716;7.016;2023-06-10T07:37:25;24.40;57.40
71837;DHT22;59686;51.716;7.016;2023-06-10T07:39:50;24.40;57.40
71837;DHT22;59686;51.716;7.016;2023-06-10T07:42:16;24.40;57.30
71837;DHT22;59686;51.716;7.016;2023-06-10T07:44:42;24.40;57.00
71837;DHT22;59686;51.716;7.016;2023-06-10T07:47:14;24.50;56.90
71837;DHT22;59686;51.716;7.016;2023-06-10T07:49:40;24.50;56.70
71837;DHT22;59686;51.716;7.016;2023-06-10T07:52:07;24.50;56.70
71837;DHT22;59686;51.716;7.016;2023-06-10T07:54:33;24.50;56.50
71837;DHT22;59686;51.716;7.016;2023-06-10T07:56:58;24.50;56.30
71837;DHT22;59686;51.716;7.016;2023-06-10T07:59:24;24.50;56.40
71837;DHT22;59686;51.716;7.016;2023-06-10T08:01:52;24.50;56.40
71837;DHT22;59686;51.716;7.016;2023-06-10T08:04:18;24.50;56.60
71837;DHT22;59686;51.716;7.016;2023-06-10T08:06:43;24.50;56.80
71837;DHT22;59686;51.716;7.016;2023-06-10T08:09:09;24.50;56.80
71837;DHT22;59686;51.716;7.016;2023-06-10T08:11:35;24.50;56.90
71837;DHT22;59686;51.716;7.016;2023-06-10T08:14:01;24.50;56.90
71837;DHT22;59686;51.716;7.016;2023-06-10T08:16:26;24.50;57.20
71837;DHT22;59686;51.716;7.016;2023-06-10T08:18:52;24.50;57.20
71837;DHT22;59686;51.716;7.016;2023-06-10T08:21:18;24.50;57.20
71837;DHT22;59686;51.716;7.016;2023-06-10T08:23:44;24.50;57.20
71837;DHT22;59686;51.716;7.016;2023-06-10T08:26:10;24.50;57.30
71837;DHT22;59686;51.716;7.016;2023-06-10T08:28:36;24.50;57.30
71837;DHT22;59686;51.716;7.016;2023-06-10T08:31:01;24.50;57.30
71837;DHT22;59686;51.716;7.016;2023-06-10T08:33:27;24.50;57.30
71837;DHT22;59686;51.716;7.016;2023-06-10T08:36:03;24.50;57.40
71837;DHT22;59686;51.716;7.016;2023-06-10T08:38:29;24.50;57.20
71837;DHT22;59686;51.716;7.016;2023-06-10T08:40:58;24.50;57.10
71837;DHT22;59686;51.716;7.016;2023-06-10T08:43:43;24.50;57.20
71837;DHT22;59686;51.716;7.016;2023-06-10T08:46:10;24.50;57.30
71837;DHT22;59686;51.716;7.016;2023-06-10T08:48:39;24.50;57.30
71837;DHT22;59686;51.716;7.016;2023-06-10T08:51:07;24.50;57.30
71837;DHT22;59686;51.716;7.016;2023-06-10T08:53:37;24.50;57.40
71837;DHT22;59686;51.716;7.016;2023-06-10T08:56:04;24.50;57.40
71837;DHT22;59686;51.716;7.016;2023-06-10T08:58:32;24.50;57.40
71837;DHT22;59686;51.716;7.016;2023-06-10T09:00:59;24.50;57.30
71837;DHT22;59686;51.716;7.016;2023-06-10T09:03:25;24.50;57.30
71837;DHT22;59686;51.716;7.016;2023-06-10T09:05:55;24.50;57.30
71837;DHT22;59686;51.716;7.016;2023-06-10T09:08:28;24.50;57.40
71837;DHT22;59686;51.716;7.016;2023-06-10T09:10:54;24.50;57.50
71837;DHT22;59686;51.716;7.016;2023-06-10T09:13:20;24.50;57.50
71837;DHT22;59686;51.716;7.016;2023-06-10T09:15:45;24.50;57.70
71837;DHT22;59686;51.716;7.016;2023-06-10T09:18:14;24.50;57.70
71837;DHT22;59686;51.716;7.016;2023-06-10T09:20:42;24.50;57.70
71837;DHT22;59686;51.716;7.016;2023-06-10T09:23:09;24.50;57.80
71837;DHT22;59686;51.716;7.016;2023-06-10T09:25:36;24.50;57.90
71837;DHT22;59686;51.716;7.016;2023-06-10T09:28:02;24.60;57.90
71837;DHT22;59686;51.716;7.016;2023-06-10T09:30:30;24.60;57.80
71837;DHT22;59686;51.716;7.016;2023-06-10T09:32:58;24.60;57.60
71837;DHT22;59686;51.716;7.016;2023-06-10T09:35:31;24.60;57.60
71837;DHT22;59686;51.716;7.016;2023-06-10T09:37:58;24.60;57.60
71837;DHT22;59686;51.716;7.016;2023-06-10T09:40:24;24.60;57.70
71837;DHT22;59686;51.716;7.016;2023-06-10T09:45:24;24.60;57.80
71837;DHT22;59686;51.716;7.016;2023-06-10T09:47:53;24.60;57.60
71837;DHT22;59686;51.716;7.016;2023-06-10T09:50:19;24.60;57.50
71837;DHT22;59686;51.716;7.016;2023-06-10T09:52:46;24.60;57.50
71837;DHT22;59686;51.716;7.016;2023-06-10T09:55:12;24.60;57.50
71837;DHT22;59686;51.716;7.016;2023-06-10T09:57:38;24.60;57.40
71837;DHT22;59686;51.716;7.016;2023-06-10T10:00:09;24.60;57.50
71837;DHT22;59686;51.716;7.016;2023-06-10T10:02:52;24.70;57.50
71837;DHT22;59686;51.716;7.016;2023-06-10T10:05:21;24.70;57.20
71837;DHT22;59686;51.716;7.016;2023-06-10T10:07:48;24.60;57.10
71837;DHT22;59686;51.716;7.016;2023-06-10T10:10:15;24.70;57.30
71837;DHT22;59686;51.716;7.016;2023-06-10T10:12:42;24.70;57.40
71837;DHT22;59686;51.716;7.016;2023-06-10T10:15:09;24.70;57.40
71837;DHT22;59686;51.716;7.016;2023-06-10T10:17:46;24.70;57.10
71837;DHT22;59686;51.716;7.016;2023-06-10T10:20:16;24.70;57.00
71837;DHT22;59686;51.716;7.016;2023-06-10T10:22:43;24.70;56.90
71837;DHT22;59686;51.716;7.016;2023-06-10T10:25:16;24.70;56.70
71837;DHT22;59686;51.716;7.016;2023-06-10T10:27:51;24.70;56.30
71837;DHT22;59686;51.716;7.016;2023-06-10T10:30:17;24.70;56.40
71837;DHT22;59686;51.716;7.016;2023-06-10T10:32:57;24.70;56.20
71837;DHT22;59686;51.716;7.016;2023-06-10T10:35:27;24.70;56.10
71837;DHT22;59686;51.716;7.016;2023-06-10T10:37:54;24.70;56.10
71837;DHT22;59686;51.716;7.016;2023-06-10T10:40:24;24.80;56.40
71837;DHT22;59686;51.716;7.016;2023-06-10T10:42:51;24.80;56.30
71837;DHT22;59686;51.716;7.016;2023-06-10T10:45:18;24.80;56.30
71837;DHT22;59686;51.716;7.016;2023-06-10T10:47:46;24.80;56.20
71837;DHT22;59686;51.716;7.016;2023-06-10T10:50:16;24.80;56.20
71837;DHT22;59686;51.716;7.016;2023-06-10T10:53:00;24.80;56.30
71837;DHT22;59686;51.716;7.016;2023-06-10T10:55:28;24.80;56.30
71837;DHT22;59686;51.716;7.016;2023-06-10T10:58:03;24.80;56.10
71837;DHT22;59686;51.716;7.016;2023-06-10T11:00:36;24.80;56.10
71837;DHT22;59686;51.716;7.016;2023-06-10T11:05:42;24.80;55.90
71837;DHT22;59686;51.716;7.016;2023-06-10T11:08:10;24.80;55.90
71837;DHT22;59686;51.716;7.016;2023-06-10T11:10:37;24.80;55.90
71837;DHT22;59686;51.716;7.016;2023-06-10T11:13:20;24.80;55.90
71837;DHT22;59686;51.716;7.016;2023-06-10T11:15:50;24.90;55.70
71837;DHT22;59686;51.716;7.016;2023-06-10T11:18:22;24.90;55.70
71837;DHT22;59686;51.716;7.016;2023-06-10T11:21:05;24.90;55.80
71837;DHT22;59686;51.716;7.016;2023-06-10T11:23:34;24.90;55.60
71837;DHT22;59686;51.716;7.016;2023-06-10T11:26:20;24.90;55.60
71837;DHT22;59686;51.716;7.016;2023-06-10T11:31:29;24.90;55.10
71837;DHT22;59686;51.716;7.016;2023-06-10T11:34:00;25.00;55.10
71837;DHT22;59686;51.716;7.016;2023-06-10T11:36:28;25.00;55.00
71837;DHT22;59686;51.716;7.016;2023-06-10T11:38:59;25.00;54.70
71837;DHT22;59686;51.716;7.016;2023-06-10T11:41:26;25.00;55.20
71837;DHT22;59686;51.716;7.016;2023-06-10T11:43:53;25.00;54.70
71837;DHT22;59686;51.716;7.016;2023-06-10T11:46:20;25.00;54.70
71837;DHT22;59686;51.716;7.016;2023-06-10T11:48:52;25.10;54.70
71837;DHT22;59686;51.716;7.016;2023-06-10T11:51:19;25.10;54.70
71837;DHT22;59686;51.716;7.016;2023-06-10T11:53:45;25.10;54.60
71837;DHT22;59686;51.716;7.016;2023-06-10T11:56:11;25.10;54.50
71837;DHT22;59686;51.716;7.016;2023-06-10T11:58:38;25.10;54.60
71837;DHT22;59686;51.716;7.016;2023-06-10T12:01:10;25.10;54.60
71837;DHT22;59686;51.716;7.016;2023-06-10T12:03:37;25.10;54.40
71837;DHT22;59686;51.716;7.016;2023-06-10T12:06:06;25.20;54.40
71837;DHT22;59686;51.716;7.016;2023-06-10T12:08:33;25.20;54.50
71837;DHT22;59686;51.716;7.016;2023-06-10T12:10:59;25.20;54.40
71837;DHT22;59686;51.716;7.016;2023-06-10T12:13:28;25.20;54.40
71837;DHT22;59686;51.716;7.016;2023-06-10T12:15:54;25.30;54.20
71837;DHT22;59686;51.716;7.016;2023-06-10T12:18:24;25.30;54.20
71837;DHT22;59686;51.716;7.016;2023-06-10T12:20:50;25.30;54.10
71837;DHT22;59686;51.716;7.016;2023-06-10T12:23:18;25.30;53.90
71837;DHT22;59686;51.716;7.016;2023-06-10T12:25:55;25.40;54.00
71837;DHT22;59686;51.716;7.016;2023-06-10T12:28:25;25.40;54.00
71837;DHT22;59686;51.716;7.016;2023-06-10T12:30:51;25.40;53.90
71837;DHT22;59686;51.716;7.016;2023-06-10T12:33:21;25.40;53.90
71837;DHT22;59686;51.716;7.016;2023-06-10T12:35:53;25.40;53.70
71837;DHT22;59686;51.716;7.016;2023-06-10T12:38:23;25.50;53.80
71837;DHT22;59686;51.716;7.016;2023-06-10T12:43:46;25.50;53.40
71837;DHT22;59686;51.716;7.016;2023-06-10T12:46:11;25.50;53.50
71837;DHT22;59686;51.716;7.016;2023-06-10T12:48:49;25.50;53.30
71837;DHT22;59686;51.716;7.016;2023-06-10T12:51:17;25.60;53.10
71837;DHT22;59686;51.716;7.016;2023-06-10T12:53:43;25.60;52.70
71837;DHT22;59686;51.716;7.016;2023-06-10T12:56:09;25.60;52.50
71837;DHT22;59686;51.716;7.016;2023-06-10T12:58:35;25.60;52.50
71837;DHT22;59686;51.716;7.016;2023-06-10T13:01:12;25.70;52.40
71837;DHT22;59686;51.716;7.016;2023-06-10T13:03:38;25.70;52.30
71837;DHT22;59686;51.716;7.016;2023-06-10T13:06:04;25.70;52.40
71837;DHT22;59686;51.716;7.016;2023-06-10T13:08:31;25.80;52.30
71837;DHT22;59686;51.716;7.016;2023-06-10T13:10:56;25.80;52.30
71837;DHT22;59686;51.716;7.016;2023-06-10T13:13:22;25.80;52.00
71837;DHT22;59686;51.716;7.016;2023-06-10T13:15:48;25.80;51.90
71837;DHT22;59686;51.716;7.016;2023-06-10T13:18:15;25.80;51.70
71837;DHT22;59686;51.716;7.016;2023-06-10T13:20:43;25.90;51.70
71837;DHT22;59686;51.716;7.016;2023-06-10T13:23:09;25.90;51.60
71837;DHT22;59686;51.716;7.016;2023-06-10T13:25:41;26.00;51.60
71837;DHT22;59686;51.716;7.016;2023-06-10T13:28:10;26.00;51.40
71837;DHT22;59686;51.716;7.016;2023-06-10T13:30:35;26.00;51.50
71837;DHT22;59686;51.716;7.016;2023-06-10T13:33:01;26.00;51.10
71837;DHT22;59686;51.716;7.016;2023-06-10T13:35:31;26.10;51.10
71837;DHT22;59686;51.716;7.016;2023-06-10T13:37:57;26.10;51.00
71837;DHT22;59686;51.716;7.016;2023-06-10T13:40:23;26.10;50.90
71837;DHT22;59686;51.716;7.016;2023-06-10T13:42:48;26.10;50.90
71837;DHT22;59686;51.716;7.016;2023-06-10T13:45:16;26.20;50.80
71837;DHT22;59686;51.716;7.016;2023-06-10T13:47:42;26.20;50.70
71837;DHT22;59686;51.716;7.016;2023-06-10T13:50:08;26.20;50.70
71837;DHT22;59686;51.716;7.016;2023-06-10T13:52:34;26.30;50.80
71837;DHT22;59686;51.716;7.016;2023-06-10T13:54:59;26.30;50.80
71837;DHT22;59686;51.716;7.016;2023-06-10T13:57:25;26.30;50.80
71837;DHT22;59686;51.716;7.016;2023-06-10T13:59:51;26.40;50.70
71837;DHT22;59686;51.716;7.016;2023-06-10T14:02:17;26.50;50.20
71837;DHT22;59686;51.716;7.016;2023-06-10T14:04:44;26.50;49.90
71837;DHT22;59686;51.716;7.016;2023-06-10T14:07:09;26.60;49.70
71837;DHT22;59686;51.716;7.016;2023-06-10T14:09:35;26.70;49.40
71837;DHT22;59686;51.716;7.016;2023-06-10T14:12:01;26.70;50.00
71837;DHT22;59686;51.716;7.016;2023-06-10T14:14:28;26.80;49.40
71837;DHT22;59686;51.716;7.016;2023-06-10T14:16:54;26.90;49.20
71837;DHT22;59686;51.716;7.016;2023-06-10T14:19:20;26.90;49.00
71837;DHT22;59686;51.716;7.016;2023-06-10T14:21:45;26.90;48.70
71837;DHT22;59686;51.716;7.016;2023-06-10T14:24:12;27.00;48.30
71837;DHT22;59686;51.716;7.016;2023-06-10T14:26:38;26.90;47.80
71837;DHT22;59686;51.716;7.016;2023-06-10T14:29:03;27.00;47.70
71837;DHT22;59686;51.716;7.016;2023-06-10T14:31:29;27.00;47.80
71837;DHT22;59686;51.716;7.016;2023-06-10T14:33:55;27.10;47.80
71837;DHT22;59686;51.716;7.016;2023-06-10T14:36:20;27.10;47.90
71837;DHT22;59686;51.716;7.016;2023-06-10T14:38:46;27.20;48.50
71837;DHT22;59686;51.716;7.016;2023-06-10T14:41:12;27.20;48.50
71837;DHT22;59686;51.716;7.016;2023-06-10T14:43:37;27.30;48.20
71837;DHT22;59686;51.716;7.016;2023-06-10T14:46:03;27.30;47.90
71837;DHT22;59686;51.716;7.016;2023-06-10T14:48:29;27.30;48.00
71837;DHT22;59686;51.716;7.016;2023-06-10T14:50:54;27.30;48.20
71837;DHT22;59686;51.716;7.016;2023-06-10T14:53:21;27.40;48.30
71837;DHT22;59686;51.716;7.016;2023-06-10T14:55:47;27.40;48.30
71837;DHT22;59686;51.716;7.016;2023-06-10T14:58:13;27.50;48.40
71837;DHT22;59686;51.716;7.016;2023-06-10T15:00:41;27.50;48.10
71837;DHT22;59686;51.716;7.016;2023-06-10T15:03:07;27.50;47.80
71837;DHT22;59686;51.716;7.016;2023-06-10T15:05:33;27.60;47.80
71837;DHT22;59686;51.716;7.016;2023-06-10T15:08:00;27.60;48.00
71837;DHT22;59686;51.716;7.016;2023-06-10T15:10:26;27.70;47.80
71837;DHT22;59686;51.716;7.016;2023-06-10T15:12:51;27.70;47.80
71837;DHT22;59686;51.716;7.016;2023-06-10T15:15:22;27.80;47.70
71837;DHT22;59686;51.716;7.016;2023-06-10T15:17:51;27.80;47.60
71837;DHT22;59686;51.716;7.016;2023-06-10T15:20:17;27.80;47.50
71837;DHT22;59686;51.716;7.016;2023-06-10T15:22:42;27.90;47.60
71837;DHT22;59686;51.716;7.016;2023-06-10T15:25:08;27.90;47.40
71837;DHT22;59686;51.716;7.016;2023-06-10T15:27:34;28.00;47.30
71837;DHT22;59686;51.716;7.016;2023-06-10T15:29:59;28.00;47.30
71837;DHT22;59686;51.716;7.016;2023-06-10T15:32:25;28.10;47.30
71837;DHT22;59686;51.716;7.016;2023-06-10T15:34:51;28.10;47.20
71837;DHT22;59686;51.716;7.016;2023-06-10T15:37:18;28.20;47.30
71837;DHT22;59686;51.716;7.016;2023-06-10T15:39:44;28.30;47.10
71837;DHT22;59686;51.716;7.016;2023-06-10T15:42:10;28.20;46.90
71837;DHT22;59686;51.716;7.016;2023-06-10T15:44:36;28.30;46.70
71837;DHT22;59686;51.716;7.016;2023-06-10T15:47:01;28.30;46.60
71837;DHT22;59686;51.716;7.016;2023-06-10T15:49:28;28.40;46.70